sensor_id;sensor_type;location;lat;lon;timestamp;P1;durP1;ratioP1;P2;durP2;ratioP2
68944;SDS011;55984;48.790;8.990;2023-09-30T00:00:18;5.17;;;2.53;;
68944;SDS011;55984;48.790;8.990;2023-09-30T00:02:44;6.10;;;2.60;;
68944;SDS011;55984;48.790;8.990;2023-09-30T00:05:10;4.80;;;2.67;;
68944;SDS011;55984;48.790;8.990;2023-09-30T00:07:36;9.60;;;2.97;;
68944;SDS011;55984;48.790;8.990;2023-09-30T00:10:02;4.43;;;2.20;;
68944;SDS011;55984;48.790;8.990;2023-09-30T00:12:28;5.13;;;2.67;;
68944;SDS011;55984;48.790;8.990;2023-09-30T00:14:54;8.80;;;2.30;;
68944;SDS011;55984;48.790;8.990;2023-09-30T00:17:20;4.70;;;2.70;;
68944;SDS011;55984;48.790;8.990;2023-09-30T00:19:46;5.27;;;2.13;;
68944;SDS011;55984;48.790;8.990;2023-09-30T00:22:12;6.20;;;2.60;;
68944;SDS011;55984;48.790;8.990;2023-09-30T00:24:38;6.37;;;2.93;;
68944;SDS011;55984;48.790;8.990;2023-09-30T00:27:03;5.67;;;2.57;;
68944;SDS011;55984;48.790;8.990;2023-09-30T00:29:29;8.17;;;2.77;;
68944;SDS011;55984;48.790;8.990;2023-09-30T00:31:56;10.40;;;3.03;;
68944;SDS011;55984;48.790;8.990;2023-09-30T00:34:22;6.30;;;2.70;;
68944;SDS011;55984;48.790;8.990;2023-09-30T00:36:48;6.93;;;2.83;;
68944;SDS011;55984;48.790;8.990;2023-09-30T00:39:13;5.57;;;2.47;;
68944;SDS011;55984;48.790;8.990;2023-09-30T00:41:39;6.93;;;2.37;;
68944;SDS011;55984;48.790;8.990;2023-09-30T00:44:05;6.00;;;3.30;;
68944;SDS011;55984;48.790;8.990;2023-09-30T00:46:33;6.47;;;2.43;;
68944;SDS011;55984;48.790;8.990;2023-09-30T00:49:03;6.67;;;2.40;;
68944;SDS011;55984;48.790;8.990;2023-09-30T00:51:29;4.20;;;2.33;;
68944;SDS011;55984;48.790;8.990;2023-09-30T00:53:58;10.57;;;2.83;;
68944;SDS011;55984;48.790;8.990;2023-09-30T00:56:26;4.33;;;2.90;;
68944;SDS011;55984;48.790;8.990;2023-09-30T00:58:53;5.87;;;2.83;;
68944;SDS011;55984;48.790;8.990;2023-09-30T01:01:22;6.60;;;2.37;;
68944;SDS011;55984;48.790;8.990;2023-09-30T01:03:48;6.57;;;2.80;;
68944;SDS011;55984;48.790;8.990;2023-09-30T01:06:14;6.07;;;3.23;;
68944;SDS011;55984;48.790;8.990;2023-09-30T01:08:40;8.70;;;2.67;;
68944;SDS011;55984;48.790;8.990;2023-09-30T01:11:07;5.77;;;2.63;;
68944;SDS011;55984;48.790;8.990;2023-09-30T01:13:34;6.30;;;3.17;;
68944;SDS011;55984;48.790;8.990;2023-09-30T01:16:07;5.70;;;3.27;;
68944;SDS011;55984;48.790;8.990;2023-09-30T01:18:37;5.47;;;2.90;;
68944;SDS011;55984;48.790;8.990;2023-09-30T01:21:04;7.90;;;3.17;;
68944;SDS011;55984;48.790;8.990;2023-09-30T01:23:32;8.73;;;3.30;;
68944;SDS011;55984;48.790;8.990;2023-09-30T01:26:09;5.70;;;2.90;;
68944;SDS011;55984;48.790;8.990;2023-09-30T01:28:37;9.90;;;3.10;;
68944;SDS011;55984;48.790;8.990;2023-09-30T01:31:03;8.73;;;2.70;;
68944;SDS011;55984;48.790;8.990;2023-09-30T01:33:30;7.93;;;3.10;;
68944;SDS011;55984;48.790;8.990;2023-09-30T01:35:57;5.93;;;2.90;;
68944;SDS011;55984;48.790;8.990;2023-09-30T01:38:25;6.53;;;3.50;;
68944;SDS011;55984;48.790;8.990;2023-09-30T01:40:51;7.70;;;2.90;;
68944;SDS011;55984;48.790;8.990;2023-09-30T01:43:17;4.90;;;3.10;;
68944;SDS011;55984;48.790;8.990;2023-09-30T01:45:43;6.73;;;3.03;;
68944;SDS011;55984;48.790;8.990;2023-09-30T01:48:13;7.50;;;2.73;;
68944;SDS011;55984;48.790;8.990;2023-09-30T01:50:39;4.50;;;2.47;;
68944;SDS011;55984;48.790;8.990;2023-09-30T01:53:05;6.37;;;2.90;;
68944;SDS011;55984;48.790;8.990;2023-09-30T01:55:35;7.03;;;3.20;;
68944;SDS011;55984;48.790;8.990;2023-09-30T01:58:02;6.90;;;3.00;;
68944;SDS011;55984;48.790;8.990;2023-09-30T02:00:27;4.03;;;2.60;;
68944;SDS011;55984;48.790;8.990;2023-09-30T02:02:54;5.27;;;2.90;;
68944;SDS011;55984;48.790;8.990;2023-09-30T02:05:23;6.63;;;3.03;;
68944;SDS011;55984;48.790;8.990;2023-09-30T02:07:49;8.33;;;3.70;;
68944;SDS011;55984;48.790;8.990;2023-09-30T02:10:16;10.67;;;3.97;;
68944;SDS011;55984;48.790;8.990;2023-09-30T02:12:46;7.37;;;3.47;;
68944;SDS011;55984;48.790;8.990;2023-09-30T02:15:13;6.07;;;3.40;;
68944;SDS011;55984;48.790;8.990;2023-09-30T02:17:39;5.10;;;3.23;;
68944;SDS011;55984;48.790;8.990;2023-09-30T02:20:10;5.73;;;2.87;;
68944;SDS011;55984;48.790;8.990;2023-09-30T02:22:40;7.17;;;3.30;;
68944;SDS011;55984;48.790;8.990;2023-09-30T02:25:07;6.03;;;3.37;;
68944;SDS011;55984;48.790;8.990;2023-09-30T02:27:33;6.43;;;3.17;;
68944;SDS011;55984;48.790;8.990;2023-09-30T02:29:59;7.03;;;3.50;;
68944;SDS011;55984;48.790;8.990;2023-09-30T02:32:25;12.43;;;3.60;;
68944;SDS011;55984;48.790;8.990;2023-09-30T05:28:19;7.03;;;3.27;;
68944;SDS011;55984;48.790;8.990;2023-09-30T05:31:13;7.07;;;3.00;;
68944;SDS011;55984;48.790;8.990;2023-09-30T05:34:31;11.53;;;3.33;;
68944;SDS011;55984;48.790;8.990;2023-09-30T05:37:07;6.07;;;3.13;;
68944;SDS011;55984;48.790;8.990;2023-09-30T05:39:56;7.83;;;2.87;;
68944;SDS011;55984;48.790;8.990;2023-09-30T05:42:22;6.70;;;3.63;;
68944;SDS011;55984;48.790;8.990;2023-09-30T05:44:48;6.30;;;3.57;;
68944;SDS011;55984;48.790;8.990;2023-09-30T05:47:16;7.30;;;3.20;;
68944;SDS011;55984;48.790;8.990;2023-09-30T05:49:42;10.17;;;3.80;;
68944;SDS011;55984;48.790;8.990;2023-09-30T05:52:09;9.50;;;3.57;;
68944;SDS011;55984;48.790;8.990;2023-09-30T05:54:37;7.87;;;3.50;;
68944;SDS011;55984;48.790;8.990;2023-09-30T05:57:03;6.13;;;3.10;;
68944;SDS011;55984;48.790;8.990;2023-09-30T05:59:29;9.47;;;4.00;;
68944;SDS011;55984;48.790;8.990;2023-09-30T06:01:59;6.00;;;3.77;;
68944;SDS011;55984;48.790;8.990;2023-09-30T06:04:26;10.80;;;3.50;;
68944;SDS011;55984;48.790;8.990;2023-09-30T06:06:52;9.97;;;3.70;;
68944;SDS011;55984;48.790;8.990;2023-09-30T06:09:19;6.37;;;3.30;;
68944;SDS011;55984;48.790;8.990;2023-09-30T06:11:50;9.17;;;3.37;;
68944;SDS011;55984;48.790;8.990;2023-09-30T06:14:16;11.07;;;4.00;;
68944;SDS011;55984;48.790;8.990;2023-09-30T06:16:42;9.93;;;3.30;;
68944;SDS011;55984;48.790;8.990;2023-09-30T06:19:09;14.40;;;3.70;;
68944;SDS011;55984;48.790;8.990;2023-09-30T06:21:36;15.17;;;3.93;;
68944;SDS011;55984;48.790;8.990;2023-09-30T06:24:02;10.93;;;4.30;;
68944;SDS011;55984;48.790;8.990;2023-09-30T06:26:28;8.27;;;3.43;;
68944;SDS011;55984;48.790;8.990;2023-09-30T06:28:55;9.80;;;4.20;;
68944;SDS011;55984;48.790;8.990;2023-09-30T06:31:21;8.03;;;3.73;;
68944;SDS011;55984;48.790;8.990;2023-09-30T06:33:48;4.47;;;3.10;;
68944;SDS011;55984;48.790;8.990;2023-09-30T06:36:14;5.47;;;3.40;;
68944;SDS011;55984;48.790;8.990;2023-09-30T06:38:41;7.87;;;3.30;;
68944;SDS011;55984;48.790;8.990;2023-09-30T06:41:16;6.63;;;3.33;;
68944;SDS011;55984;48.790;8.990;2023-09-30T06:43:43;6.97;;;3.20;;
68944;SDS011;55984;48.790;8.990;2023-09-30T06:46:12;6.07;;;3.40;;
68944;SDS011;55984;48.790;8.990;2023-09-30T06:48:38;4.80;;;3.07;;
68944;SDS011;55984;48.790;8.990;2023-09-30T06:51:12;8.23;;;3.63;;
68944;SDS011;55984;48.790;8.990;2023-09-30T06:53:42;5.20;;;3.00;;
68944;SDS011;55984;48.790;8.990;2023-09-30T06:56:09;9.70;;;2.77;;
68944;SDS011;55984;48.790;8.990;2023-09-30T06:58:35;6.80;;;3.40;;
68944;SDS011;55984;48.790;8.990;2023-09-30T07:01:01;7.60;;;3.53;;
68944;SDS011;55984;48.790;8.990;2023-09-30T07:03:27;8.07;;;3.50;;
68944;SDS011;55984;48.790;8.990;2023-09-30T07:05:53;5.90;;;3.50;;
68944;SDS011;55984;48.790;8.990;2023-09-30T07:08:19;6.07;;;3.30;;
68944;SDS011;55984;48.790;8.990;2023-09-30T07:10:47;10.73;;;3.90;;
68944;SDS011;55984;48.790;8.990;2023-09-30T07:13:15;7.30;;;3.53;;
68944;SDS011;55984;48.790;8.990;2023-09-30T07:15:43;9.60;;;3.60;;
68944;SDS011;55984;48.790;8.990;2023-09-30T07:18:09;7.97;;;3.80;;
68944;SDS011;55984;48.790;8.990;2023-09-30T07:20:35;10.40;;;4.17;;
68944;SDS011;55984;48.790;8.990;2023-09-30T07:23:03;12.10;;;4.40;;
68944;SDS011;55984;48.790;8.990;2023-09-30T07:25:30;7.17;;;4.57;;
68944;SDS011;55984;48.790;8.990;2023-09-30T07:27:57;7.63;;;3.70;;
68944;SDS011;55984;48.790;8.990;2023-09-30T07:30:25;8.53;;;4.70;;
68944;SDS011;55984;48.790;8.990;2023-09-30T07:32:51;8.60;;;4.90;;
68944;SDS011;55984;48.790;8.990;2023-09-30T07:35:17;6.33;;;3.43;;
68944;SDS011;55984;48.790;8.990;2023-09-30T07:37:43;8.63;;;3.93;;
68944;SDS011;55984;48.790;8.990;2023-09-30T07:40:10;7.53;;;4.80;;
68944;SDS011;55984;48.790;8.990;2023-09-30T07:42:38;13.50;;;3.93;;
68944;SDS011;55984;48.790;8.990;2023-09-30T07:45:05;8.23;;;3.90;;
68944;SDS011;55984;48.790;8.990;2023-09-30T07:47:36;7.47;;;3.90;;
68944;SDS011;55984;48.790;8.990;2023-09-30T07:50:04;9.40;;;4.43;;
68944;SDS011;55984;48.790;8.990;2023-09-30T07:52:35;17.13;;;4.00;;
68944;SDS011;55984;48.790;8.990;2023-09-30T07:55:16;7.23;;;4.03;;
68944;SDS011;55984;48.790;8.990;2023-09-30T07:57:46;9.70;;;3.80;;
68944;SDS011;55984;48.790;8.990;2023-09-30T08:00:30;11.00;;;4.60;;
68944;SDS011;55984;48.790;8.990;2023-09-30T08:02:58;8.60;;;3.90;;
68944;SDS011;55984;48.790;8.990;2023-09-30T08:05:26;8.90;;;3.40;;
68944;SDS011;55984;48.790;8.990;2023-09-30T08:07:52;6.30;;;3.67;;
68944;SDS011;55984;48.790;8.990;2023-09-30T08:10:19;10.70;;;4.10;;
68944;SDS011;55984;48.790;8.990;2023-09-30T08:12:46;8.80;;;4.13;;
68944;SDS011;55984;48.790;8.990;2023-09-30T08:15:14;12.00;;;4.30;;
68944;SDS011;55984;48.790;8.990;2023-09-30T08:17:41;8.33;;;3.80;;
68944;SDS011;55984;48.790;8.990;2023-09-30T08:20:07;7.17;;;3.80;;
68944;SDS011;55984;48.790;8.990;2023-09-30T08:22:34;4.80;;;2.83;;
68944;SDS011;55984;48.790;8.990;2023-09-30T08:25:00;7.87;;;3.67;;
68944;SDS011;55984;48.790;8.990;2023-09-30T08:27:27;5.97;;;3.00;;
68944;SDS011;55984;48.790;8.990;2023-09-30T08:29:53;7.70;;;2.93;;
68944;SDS011;55984;48.790;8.990;2023-09-30T08:32:26;5.30;;;2.80;;
68944;SDS011;55984;48.790;8.990;2023-09-30T08:35:37;6.20;;;2.23;;
68944;SDS011;55984;48.790;8.990;2023-09-30T08:38:03;3.80;;;2.40;;
68944;SDS011;55984;48.790;8.990;2023-09-30T08:40:29;7.33;;;2.93;;
68944;SDS011;55984;48.790;8.990;2023-09-30T08:42:56;7.37;;;3.43;;
68944;SDS011;55984;48.790;8.990;2023-09-30T08:45:22;4.70;;;2.67;;
68944;SDS011;55984;48.790;8.990;2023-09-30T08:47:50;3.77;;;2.70;;
68944;SDS011;55984;48.790;8.990;2023-09-30T08:50:17;5.83;;;2.43;;
68944;SDS011;55984;48.790;8.990;2023-09-30T08:52:44;5.70;;;2.70;;
68944;SDS011;55984;48.790;8.990;2023-09-30T08:55:11;7.87;;;3.23;;
68944;SDS011;55984;48.790;8.990;2023-09-30T08:57:38;5.37;;;3.00;;
68944;SDS011;55984;48.790;8.990;2023-09-30T09:02:42;7.80;;;3.47;;
68944;SDS011;55984;48.790;8.990;2023-09-30T09:05:08;8.80;;;3.10;;
68944;SDS011;55984;48.790;8.990;2023-09-30T09:07:36;7.57;;;3.17;;
68944;SDS011;55984;48.790;8.990;2023-09-30T09:10:06;8.03;;;3.40;;
68944;SDS011;55984;48.790;8.990;2023-09-30T09:12:34;5.60;;;2.90;;
68944;SDS011;55984;48.790;8.990;2023-09-30T09:15:05;4.70;;;3.00;;
68944;SDS011;55984;48.790;8.990;2023-09-30T09:17:42;6.50;;;3.20;;
68944;SDS011;55984;48.790;8.990;2023-09-30T09:20:11;5.37;;;2.90;;
68944;SDS011;55984;48.790;8.990;2023-09-30T09:22:45;7.17;;;2.93;;
68944;SDS011;55984;48.790;8.990;2023-09-30T09:25:15;7.03;;;3.03;;
68944;SDS011;55984;48.790;8.990;2023-09-30T09:27:41;5.50;;;3.00;;
68944;SDS011;55984;48.790;8.990;2023-09-30T09:30:21;6.67;;;2.80;;
68944;SDS011;55984;48.790;8.990;2023-09-30T09:33:00;5.70;;;2.73;;
68944;SDS011;55984;48.790;8.990;2023-09-30T09:35:28;7.67;;;3.40;;
68944;SDS011;55984;48.790;8.990;2023-09-30T09:37:59;4.40;;;2.93;;
68944;SDS011;55984;48.790;8.990;2023-09-30T09:40:27;8.60;;;2.70;;
68944;SDS011;55984;48.790;8.990;2023-09-30T09:42:55;5.53;;;3.17;;
68944;SDS011;55984;48.790;8.990;2023-09-30T09:45:22;4.73;;;3.10;;
68944;SDS011;55984;48.790;8.990;2023-09-30T09:47:49;5.80;;;2.53;;
68944;SDS011;55984;48.790;8.990;2023-09-30T09:50:18;5.00;;;2.80;;
68944;SDS011;55984;48.790;8.990;2023-09-30T09:52:47;5.57;;;2.63;;
68944;SDS011;55984;48.790;8.990;2023-09-30T09:55:16;9.70;;;2.70;;
68944;SDS011;55984;48.790;8.990;2023-09-30T09:57:43;4.97;;;2.83;;
68944;SDS011;55984;48.790;8.990;2023-09-30T10:00:11;4.67;;;2.70;;
68944;SDS011;55984;48.790;8.990;2023-09-30T10:02:51;6.70;;;2.90;;
68944;SDS011;55984;48.790;8.990;2023-09-30T10:05:18;8.73;;;3.27;;
68944;SDS011;55984;48.790;8.990;2023-09-30T10:07:52;5.90;;;2.63;;
68944;SDS011;55984;48.790;8.990;2023-09-30T10:10:22;5.10;;;2.93;;
68944;SDS011;55984;48.790;8.990;2023-09-30T10:12:49;6.87;;;2.83;;
68944;SDS011;55984;48.790;8.990;2023-09-30T10:17:59;4.07;;;2.33;;
68944;SDS011;55984;48.790;8.990;2023-09-30T10:20:31;4.83;;;2.53;;
68944;SDS011;55984;48.790;8.990;2023-09-30T10:23:23;4.67;;;2.40;;
68944;SDS011;55984;48.790;8.990;2023-09-30T10:26:33;4.87;;;2.23;;
68944;SDS011;55984;48.790;8.990;2023-09-30T10:28:44;5.90;;;2.90;;
68944;SDS011;55984;48.790;8.990;2023-09-30T10:31:18;6.73;;;2.90;;
68944;SDS011;55984;48.790;8.990;2023-09-30T10:36:28;5.57;;;2.53;;
68944;SDS011;55984;48.790;8.990;2023-09-30T10:38:56;4.93;;;2.77;;
68944;SDS011;55984;48.790;8.990;2023-09-30T10:46:51;6.50;;;3.00;;
68944;SDS011;55984;48.790;8.990;2023-09-30T10:51:53;7.23;;;2.90;;
68944;SDS011;55984;48.790;8.990;2023-09-30T10:54:25;6.37;;;3.00;;
68944;SDS011;55984;48.790;8.990;2023-09-30T10:56:52;6.20;;;2.90;;
68944;SDS011;55984;48.790;8.990;2023-09-30T10:59:19;4.97;;;2.90;;
68944;SDS011;55984;48.790;8.990;2023-09-30T11:01:46;4.40;;;2.50;;
68944;SDS011;55984;48.790;8.990;2023-09-30T11:04:11;5.60;;;2.83;;
68944;SDS011;55984;48.790;8.990;2023-09-30T11:06:43;5.50;;;2.83;;
68944;SDS011;55984;48.790;8.990;2023-09-30T11:09:14;5.60;;;2.73;;
68944;SDS011;55984;48.790;8.990;2023-09-30T11:11:42;5.67;;;2.80;;
68944;SDS011;55984;48.790;8.990;2023-09-30T11:14:23;7.90;;;3.40;;
68944;SDS011;55984;48.790;8.990;2023-09-30T11:16:58;7.57;;;3.03;;
68944;SDS011;55984;48.790;8.990;2023-09-30T11:19:36;9.70;;;3.27;;
68944;SDS011;55984;48.790;8.990;2023-09-30T11:22:12;6.53;;;3.40;;
68944;SDS011;55984;48.790;8.990;2023-09-30T11:24:39;9.23;;;2.80;;
68944;SDS011;55984;48.790;8.990;2023-09-30T11:27:05;9.20;;;3.53;;
68944;SDS011;55984;48.790;8.990;2023-09-30T11:29:31;8.27;;;3.10;;
68944;SDS011;55984;48.790;8.990;2023-09-30T11:31:57;7.10;;;3.10;;
68944;SDS011;55984;48.790;8.990;2023-09-30T11:34:33;7.40;;;3.20;;
68944;SDS011;55984;48.790;8.990;2023-09-30T11:37:01;6.37;;;2.80;;
68944;SDS011;55984;48.790;8.990;2023-09-30T11:39:28;5.50;;;3.00;;
68944;SDS011;55984;48.790;8.990;2023-09-30T11:41:55;9.60;;;3.30;;
68944;SDS011;55984;48.790;8.990;2023-09-30T11:44:22;6.60;;;2.80;;
68944;SDS011;55984;48.790;8.990;2023-09-30T11:46:56;6.50;;;3.40;;
68944;SDS011;55984;48.790;8.990;2023-09-30T11:51:52;5.30;;;2.70;;
68944;SDS011;55984;48.790;8.990;2023-09-30T11:54:18;8.20;;;3.37;;
68944;SDS011;55984;48.790;8.990;2023-09-30T11:56:44;6.33;;;3.00;;
68944;SDS011;55984;48.790;8.990;2023-09-30T11:59:12;7.83;;;3.10;;
68944;SDS011;55984;48.790;8.990;2023-09-30T12:01:38;7.37;;;3.10;;
68944;SDS011;55984;48.790;8.990;2023-09-30T12:04:04;6.20;;;2.80;;
68944;SDS011;55984;48.790;8.990;2023-09-30T12:06:31;6.27;;;2.90;;
68944;SDS011;55984;48.790;8.990;2023-09-30T12:08:59;5.50;;;2.80;;
68944;SDS011;55984;48.790;8.990;2023-09-30T12:11:25;6.13;;;3.03;;
68944;SDS011;55984;48.790;8.990;2023-09-30T12:13:51;8.07;;;4.10;;
68944;SDS011;55984;48.790;8.990;2023-09-30T12:16:17;5.93;;;2.73;;
68944;SDS011;55984;48.790;8.990;2023-09-30T12:18:44;5.03;;;2.73;;
68944;SDS011;55984;48.790;8.990;2023-09-30T12:21:11;6.30;;;3.17;;
68944;SDS011;55984;48.790;8.990;2023-09-30T12:23:45;6.10;;;3.00;;
68944;SDS011;55984;48.790;8.990;2023-09-30T12:26:11;6.63;;;3.37;;
68944;SDS011;55984;48.790;8.990;2023-09-30T12:28:37;10.77;;;3.33;;
68944;SDS011;55984;48.790;8.990;2023-09-30T12:31:05;7.47;;;3.30;;
68944;SDS011;55984;48.790;8.990;2023-09-30T12:33:31;5.87;;;2.93;;
68944;SDS011;55984;48.790;8.990;2023-09-30T12:35:57;8.63;;;3.50;;
68944;SDS011;55984;48.790;8.990;2023-09-30T12:38:24;7.40;;;2.83;;
68944;SDS011;55984;48.790;8.990;2023-09-30T12:40:51;7.43;;;3.60;;
68944;SDS011;55984;48.790;8.990;2023-09-30T12:43:18;9.93;;;3.13;;
68944;SDS011;55984;48.790;8.990;2023-09-30T12:45:44;6.33;;;3.17;;
68944;SDS011;55984;48.790;8.990;2023-09-30T12:48:11;5.93;;;2.83;;
68944;SDS011;55984;48.790;8.990;2023-09-30T12:50:37;7.40;;;3.20;;
68944;SDS011;55984;48.790;8.990;2023-09-30T12:53:03;7.10;;;3.27;;
68944;SDS011;55984;48.790;8.990;2023-09-30T12:55:29;5.13;;;3.20;;
68944;SDS011;55984;48.790;8.990;2023-09-30T12:57:55;8.03;;;3.50;;
68944;SDS011;55984;48.790;8.990;2023-09-30T13:00:21;9.00;;;2.80;;
68944;SDS011;55984;48.790;8.990;2023-09-30T13:02:47;4.97;;;3.00;;
68944;SDS011;55984;48.790;8.990;2023-09-30T13:05:13;8.80;;;3.27;;
68944;SDS011;55984;48.790;8.990;2023-09-30T13:07:41;6.57;;;3.20;;
68944;SDS011;55984;48.790;8.990;2023-09-30T13:10:07;6.43;;;3.27;;
68944;SDS011;55984;48.790;8.990;2023-09-30T13:12:35;10.43;;;3.33;;
68944;SDS011;55984;48.790;8.990;2023-09-30T13:15:01;5.87;;;2.70;;
68944;SDS011;55984;48.790;8.990;2023-09-30T13:17:27;7.23;;;3.40;;
68944;SDS011;55984;48.790;8.990;2023-09-30T13:19:54;6.87;;;3.30;;
68944;SDS011;55984;48.790;8.990;2023-09-30T13:22:20;9.50;;;3.53;;
68944;SDS011;55984;48.790;8.990;2023-09-30T13:24:46;8.20;;;3.17;;
68944;SDS011;55984;48.790;8.990;2023-09-30T13:27:12;8.07;;;3.30;;
68944;SDS011;55984;48.790;8.990;2023-09-30T13:29:42;7.20;;;3.00;;
68944;SDS011;55984;48.790;8.990;2023-09-30T13:32:09;9.60;;;3.50;;
68944;SDS011;55984;48.790;8.990;2023-09-30T13:34:35;6.60;;;3.23;;
68944;SDS011;55984;48.790;8.990;2023-09-30T13:37:01;8.57;;;3.30;;
68944;SDS011;55984;48.790;8.990;2023-09-30T13:39:27;8.10;;;3.13;;
68944;SDS011;55984;48.790;8.990;2023-09-30T13:41:54;8.13;;;3.10;;
68944;SDS011;55984;48.790;8.990;2023-09-30T13:44:20;7.80;;;3.57;;
68944;SDS011;55984;48.790;8.990;2023-09-30T13:46:46;6.67;;;3.37;;
68944;SDS011;55984;48.790;8.990;2023-09-30T13:49:13;8.50;;;2.93;;
68944;SDS011;55984;48.790;8.990;2023-09-30T13:51:39;7.20;;;3.07;;
68944;SDS011;55984;48.790;8.990;2023-09-30T13:54:06;9.43;;;3.30;;
68944;SDS011;55984;48.790;8.990;2023-09-30T13:56:33;9.67;;;3.10;;
68944;SDS011;55984;48.790;8.990;2023-09-30T13:58:59;9.67;;;3.27;;
68944;SDS011;55984;48.790;8.990;2023-09-30T14:01:25;9.57;;;3.87;;
68944;SDS011;55984;48.790;8.990;2023-09-30T14:03:52;6.43;;;2.77;;
68944;SDS011;55984;48.790;8.990;2023-09-30T14:06:22;5.77;;;2.97;;
68944;SDS011;55984;48.790;8.990;2023-09-30T14:08:48;5.80;;;3.00;;
68944;SDS011;55984;48.790;8.990;2023-09-30T14:11:14;6.43;;;3.37;;
68944;SDS011;55984;48.790;8.990;2023-09-30T14:13:40;8.60;;;3.60;;
68944;SDS011;55984;48.790;8.990;2023-09-30T14:16:07;10.13;;;2.90;;
68944;SDS011;55984;48.790;8.990;2023-09-30T14:18:33;6.50;;;3.20;;
68944;SDS011;55984;48.790;8.990;2023-09-30T14:21:01;8.47;;;3.30;;
68944;SDS011;55984;48.790;8.990;2023-09-30T14:23:27;11.97;;;3.77;;
68944;SDS011;55984;48.790;8.990;2023-09-30T14:25:54;9.83;;;3.90;;
68944;SDS011;55984;48.790;8.990;2023-09-30T14:28:24;9.70;;;3.43;;
68944;SDS011;55984;48.790;8.990;2023-09-30T14:30:50;7.30;;;2.97;;
68944;SDS011;55984;48.790;8.990;2023-09-30T14:33:16;7.80;;;3.50;;
68944;SDS011;55984;48.790;8.990;2023-09-30T14:35:44;6.60;;;3.00;;
68944;SDS011;55984;48.790;8.990;2023-09-30T14:38:11;7.37;;;3.37;;
68944;SDS011;55984;48.790;8.990;2023-09-30T18:49:27;10.40;;;4.70;;
68944;SDS011;55984;48.790;8.990;2023-09-30T18:51:53;16.67;;;6.17;;
68944;SDS011;55984;48.790;8.990;2023-09-30T18:54:19;18.10;;;7.10;;
68944;SDS011;55984;48.790;8.990;2023-09-30T18:56:48;23.77;;;7.07;;
68944;SDS011;55984;48.790;8.990;2023-09-30T18:59:16;23.93;;;6.50;;
68944;SDS011;55984;48.790;8.990;2023-09-30T19:01:46;21.40;;;7.40;;
68944;SDS011;55984;48.790;8.990;2023-09-30T19:04:14;17.60;;;6.40;;
68944;SDS011;55984;48.790;8.990;2023-09-30T19:06:43;14.90;;;5.80;;
